sensor_id;sensor_type;location;lat;lon;timestamp;P1;durP1;ratioP1;P2;durP2;ratioP2
52320;SDS011;38261;54.090;13.382;2023-04-22T00:00:44;6.07;;;3.03;;
52320;SDS011;38261;54.090;13.382;2023-04-22T00:02:06;8.07;;;3.67;;
52320;SDS011;38261;54.090;13.382;2023-04-22T00:03:28;7.07;;;3.10;;
52320;SDS011;38261;54.090;13.382;2023-04-22T00:04:52;6.50;;;2.97;;
52320;SDS011;38261;54.090;13.382;2023-04-22T00:06:17;5.17;;;2.97;;
52320;SDS011;38261;54.090;13.382;2023-04-22T00:07:39;6.13;;;2.80;;
52320;SDS011;38261;54.090;13.382;2023-04-22T00:09:03;6.70;;;2.93;;
52320;SDS011;38261;54.090;13.382;2023-04-22T00:10:25;6.20;;;3.07;;
52320;SDS011;38261;54.090;13.382;2023-04-22T00:11:48;6.63;;;3.40;;
52320;SDS011;38261;54.090;13.382;2023-04-22T00:13:10;6.40;;;3.50;;
52320;SDS011;38261;54.090;13.382;2023-04-22T00:14:32;5.37;;;3.20;;
52320;SDS011;38261;54.090;13.382;2023-04-22T00:15:56;4.77;;;3.37;;
52320;SDS011;38261;54.090;13.382;2023-04-22T00:17:18;8.80;;;3.07;;
52320;SDS011;38261;54.090;13.382;2023-04-22T00:18:40;3.80;;;3.13;;
52320;SDS011;38261;54.090;13.382;2023-04-22T00:20:03;6.00;;;3.00;;
52320;SDS011;38261;54.090;13.382;2023-04-22T00:21:26;13.07;;;3.97;;
52320;SDS011;38261;54.090;13.382;2023-04-22T00:22:49;4.60;;;2.87;;
52320;SDS011;38261;54.090;13.382;2023-04-22T00:24:11;5.80;;;3.07;;
52320;SDS011;38261;54.090;13.382;2023-04-22T00:25:33;4.03;;;3.27;;
52320;SDS011;38261;54.090;13.382;2023-04-22T00:26:55;6.30;;;2.80;;
52320;SDS011;38261;54.090;13.382;2023-04-22T00:28:17;4.63;;;3.27;;
52320;SDS011;38261;54.090;13.382;2023-04-22T00:29:40;6.50;;;3.53;;
52320;SDS011;38261;54.090;13.382;2023-04-22T00:31:02;5.73;;;3.70;;
52320;SDS011;38261;54.090;13.382;2023-04-22T00:32:25;6.70;;;3.40;;
52320;SDS011;38261;54.090;13.382;2023-04-22T00:33:47;3.83;;;3.43;;
52320;SDS011;38261;54.090;13.382;2023-04-22T00:35:10;7.37;;;3.10;;
52320;SDS011;38261;54.090;13.382;2023-04-22T00:36:32;7.57;;;3.20;;
52320;SDS011;38261;54.090;13.382;2023-04-22T00:37:54;5.33;;;3.20;;
52320;SDS011;38261;54.090;13.382;2023-04-22T00:39:17;5.63;;;3.47;;
52320;SDS011;38261;54.090;13.382;2023-04-22T00:40:39;6.87;;;3.40;;
52320;SDS011;38261;54.090;13.382;2023-04-22T00:42:01;5.13;;;3.30;;
52320;SDS011;38261;54.090;13.382;2023-04-22T00:43:24;3.83;;;3.43;;
52320;SDS011;38261;54.090;13.382;2023-04-22T00:44:46;6.70;;;3.10;;
52320;SDS011;38261;54.090;13.382;2023-04-22T00:46:09;10.20;;;3.70;;
52320;SDS011;38261;54.090;13.382;2023-04-22T00:47:31;5.27;;;3.20;;
52320;SDS011;38261;54.090;13.382;2023-04-22T00:48:53;7.30;;;3.30;;
52320;SDS011;38261;54.090;13.382;2023-04-22T00:50:16;8.83;;;3.40;;
52320;SDS011;38261;54.090;13.382;2023-04-22T00:51:39;8.33;;;3.50;;
52320;SDS011;38261;54.090;13.382;2023-04-22T00:53:01;5.53;;;3.40;;
52320;SDS011;38261;54.090;13.382;2023-04-22T00:54:23;5.03;;;3.30;;
52320;SDS011;38261;54.090;13.382;2023-04-22T00:55:45;8.90;;;3.60;;
52320;SDS011;38261;54.090;13.382;2023-04-22T00:57:08;6.97;;;4.07;;
52320;SDS011;38261;54.090;13.382;2023-04-22T00:58:30;6.73;;;3.73;;
52320;SDS011;38261;54.090;13.382;2023-04-22T00:59:53;9.73;;;3.77;;
52320;SDS011;38261;54.090;13.382;2023-04-22T01:01:16;6.30;;;3.57;;
52320;SDS011;38261;54.090;13.382;2023-04-22T01:02:39;5.10;;;3.13;;
52320;SDS011;38261;54.090;13.382;2023-04-22T01:04:02;9.37;;;3.30;;
52320;SDS011;38261;54.090;13.382;2023-04-22T01:05:25;5.47;;;3.67;;
52320;SDS011;38261;54.090;13.382;2023-04-22T01:06:50;8.80;;;3.40;;
52320;SDS011;38261;54.090;13.382;2023-04-22T01:08:14;5.47;;;3.57;;
52320;SDS011;38261;54.090;13.382;2023-04-22T01:09:36;6.50;;;3.03;;
52320;SDS011;38261;54.090;13.382;2023-04-22T01:11:01;5.77;;;3.50;;
52320;SDS011;38261;54.090;13.382;2023-04-22T01:12:23;7.10;;;3.43;;
52320;SDS011;38261;54.090;13.382;2023-04-22T01:13:45;4.50;;;3.20;;
52320;SDS011;38261;54.090;13.382;2023-04-22T01:15:08;4.20;;;3.20;;
52320;SDS011;38261;54.090;13.382;2023-04-22T01:16:30;5.30;;;3.43;;
52320;SDS011;38261;54.090;13.382;2023-04-22T01:17:56;6.70;;;3.37;;
52320;SDS011;38261;54.090;13.382;2023-04-22T01:19:19;9.30;;;3.17;;
52320;SDS011;38261;54.090;13.382;2023-04-22T01:20:41;5.83;;;3.97;;
52320;SDS011;38261;54.090;13.382;2023-04-22T01:22:03;4.53;;;3.50;;
52320;SDS011;38261;54.090;13.382;2023-04-22T01:23:28;5.83;;;3.83;;
52320;SDS011;38261;54.090;13.382;2023-04-22T01:24:50;5.50;;;3.60;;
52320;SDS011;38261;54.090;13.382;2023-04-22T01:26:12;6.93;;;3.10;;
52320;SDS011;38261;54.090;13.382;2023-04-22T01:27:34;6.07;;;3.30;;
52320;SDS011;38261;54.090;13.382;2023-04-22T01:28:57;5.83;;;3.73;;
52320;SDS011;38261;54.090;13.382;2023-04-22T01:30:21;6.80;;;4.03;;
52320;SDS011;38261;54.090;13.382;2023-04-22T01:31:43;7.63;;;4.40;;
52320;SDS011;38261;54.090;13.382;2023-04-22T01:33:06;9.20;;;4.20;;
52320;SDS011;38261;54.090;13.382;2023-04-22T01:34:30;6.10;;;3.40;;
52320;SDS011;38261;54.090;13.382;2023-04-22T01:35:52;3.90;;;3.47;;
52320;SDS011;38261;54.090;13.382;2023-04-22T01:37:15;7.50;;;3.80;;
52320;SDS011;38261;54.090;13.382;2023-04-22T01:38:38;5.40;;;3.23;;
52320;SDS011;38261;54.090;13.382;2023-04-22T01:40:01;6.93;;;3.60;;
52320;SDS011;38261;54.090;13.382;2023-04-22T01:41:24;4.70;;;3.50;;
52320;SDS011;38261;54.090;13.382;2023-04-22T01:42:47;4.67;;;3.43;;
52320;SDS011;38261;54.090;13.382;2023-04-22T01:44:09;10.60;;;4.40;;
52320;SDS011;38261;54.090;13.382;2023-04-22T01:45:31;4.63;;;3.30;;
52320;SDS011;38261;54.090;13.382;2023-04-22T01:46:54;6.20;;;3.90;;
52320;SDS011;38261;54.090;13.382;2023-04-22T01:48:16;4.67;;;3.30;;
52320;SDS011;38261;54.090;13.382;2023-04-22T01:49:38;8.43;;;3.70;;
52320;SDS011;38261;54.090;13.382;2023-04-22T01:51:01;5.30;;;3.40;;
52320;SDS011;38261;54.090;13.382;2023-04-22T01:52:25;5.90;;;4.07;;
52320;SDS011;38261;54.090;13.382;2023-04-22T01:53:47;8.33;;;3.90;;
52320;SDS011;38261;54.090;13.382;2023-04-22T01:55:10;6.83;;;3.63;;
52320;SDS011;38261;54.090;13.382;2023-04-22T01:56:32;6.40;;;4.00;;
52320;SDS011;38261;54.090;13.382;2023-04-22T01:57:54;11.53;;;3.80;;
52320;SDS011;38261;54.090;13.382;2023-04-22T01:59:16;6.27;;;3.37;;
52320;SDS011;38261;54.090;13.382;2023-04-22T02:00:38;4.57;;;3.30;;
52320;SDS011;38261;54.090;13.382;2023-04-22T02:02:00;5.50;;;3.80;;
52320;SDS011;38261;54.090;13.382;2023-04-22T02:03:23;6.00;;;3.83;;
52320;SDS011;38261;54.090;13.382;2023-04-22T02:04:45;7.90;;;4.03;;
52320;SDS011;38261;54.090;13.382;2023-04-22T02:06:07;7.50;;;3.50;;
52320;SDS011;38261;54.090;13.382;2023-04-22T02:07:29;6.30;;;3.63;;
52320;SDS011;38261;54.090;13.382;2023-04-22T02:08:51;6.73;;;3.90;;
52320;SDS011;38261;54.090;13.382;2023-04-22T02:10:13;8.13;;;4.00;;
52320;SDS011;38261;54.090;13.382;2023-04-22T02:11:35;7.53;;;3.80;;
52320;SDS011;38261;54.090;13.382;2023-04-22T02:12:57;8.17;;;4.13;;
52320;SDS011;38261;54.090;13.382;2023-04-22T02:14:20;7.60;;;3.87;;
52320;SDS011;38261;54.090;13.382;2023-04-22T02:15:42;5.07;;;3.90;;
52320;SDS011;38261;54.090;13.382;2023-04-22T02:17:04;5.20;;;3.70;;
52320;SDS011;38261;54.090;13.382;2023-04-22T02:18:26;8.53;;;4.60;;
52320;SDS011;38261;54.090;13.382;2023-04-22T02:19:48;9.10;;;4.40;;
52320;SDS011;38261;54.090;13.382;2023-04-22T02:21:10;8.30;;;4.73;;
52320;SDS011;38261;54.090;13.382;2023-04-22T02:22:32;6.73;;;4.47;;
52320;SDS011;38261;54.090;13.382;2023-04-22T02:23:55;6.47;;;4.60;;
52320;SDS011;38261;54.090;13.382;2023-04-22T02:25:17;8.63;;;4.90;;
52320;SDS011;38261;54.090;13.382;2023-04-22T02:26:39;10.10;;;5.10;;
52320;SDS011;38261;54.090;13.382;2023-04-22T02:28:02;6.40;;;4.30;;
52320;SDS011;38261;54.090;13.382;2023-04-22T02:29:24;6.63;;;3.97;;
52320;SDS011;38261;54.090;13.382;2023-04-22T02:30:46;6.97;;;4.57;;
52320;SDS011;38261;54.090;13.382;2023-04-22T02:32:08;8.33;;;4.93;;
52320;SDS011;38261;54.090;13.382;2023-04-22T02:33:30;9.07;;;5.50;;
52320;SDS011;38261;54.090;13.382;2023-04-22T02:34:52;11.33;;;5.63;;
52320;SDS011;38261;54.090;13.382;2023-04-22T02:36:14;6.20;;;4.90;;
52320;SDS011;38261;54.090;13.382;2023-04-22T02:37:36;11.63;;;5.50;;
52320;SDS011;38261;54.090;13.382;2023-04-22T02:39:00;7.70;;;5.10;;
52320;SDS011;38261;54.090;13.382;2023-04-22T02:40:24;10.57;;;4.67;;
52320;SDS011;38261;54.090;13.382;2023-04-22T02:41:46;7.90;;;5.00;;
52320;SDS011;38261;54.090;13.382;2023-04-22T02:43:08;12.33;;;5.70;;
52320;SDS011;38261;54.090;13.382;2023-04-22T02:44:30;10.83;;;5.40;;
52320;SDS011;38261;54.090;13.382;2023-04-22T02:45:52;8.20;;;4.87;;
52320;SDS011;38261;54.090;13.382;2023-04-22T02:47:14;11.33;;;5.33;;
52320;SDS011;38261;54.090;13.382;2023-04-22T02:48:37;12.23;;;5.10;;
52320;SDS011;38261;54.090;13.382;2023-04-22T02:49:59;11.93;;;5.20;;
52320;SDS011;38261;54.090;13.382;2023-04-22T02:51:21;11.13;;;5.50;;
52320;SDS011;38261;54.090;13.382;2023-04-22T02:52:44;7.50;;;5.40;;
52320;SDS011;38261;54.090;13.382;2023-04-22T02:54:06;10.70;;;5.43;;
52320;SDS011;38261;54.090;13.382;2023-04-22T02:55:28;10.20;;;6.10;;
52320;SDS011;38261;54.090;13.382;2023-04-22T02:56:50;9.77;;;6.03;;
52320;SDS011;38261;54.090;13.382;2023-04-22T02:58:12;9.40;;;6.13;;
52320;SDS011;38261;54.090;13.382;2023-04-22T02:59:34;10.83;;;6.30;;
52320;SDS011;38261;54.090;13.382;2023-04-22T03:00:58;12.47;;;5.40;;
52320;SDS011;38261;54.090;13.382;2023-04-22T03:02:20;11.80;;;6.50;;
52320;SDS011;38261;54.090;13.382;2023-04-22T03:03:42;11.27;;;6.87;;
52320;SDS011;38261;54.090;13.382;2023-04-22T03:05:05;9.83;;;5.90;;
52320;SDS011;38261;54.090;13.382;2023-04-22T03:06:27;10.87;;;6.37;;
52320;SDS011;38261;54.090;13.382;2023-04-22T03:07:49;10.07;;;6.13;;
52320;SDS011;38261;54.090;13.382;2023-04-22T03:09:11;10.53;;;6.70;;
52320;SDS011;38261;54.090;13.382;2023-04-22T03:10:33;10.00;;;5.80;;
52320;SDS011;38261;54.090;13.382;2023-04-22T03:11:55;11.63;;;6.03;;
52320;SDS011;38261;54.090;13.382;2023-04-22T03:13:18;11.00;;;6.40;;
52320;SDS011;38261;54.090;13.382;2023-04-22T03:14:40;8.83;;;6.40;;
52320;SDS011;38261;54.090;13.382;2023-04-22T03:16:02;11.97;;;6.80;;
52320;SDS011;38261;54.090;13.382;2023-04-22T03:17:24;8.80;;;6.00;;
52320;SDS011;38261;54.090;13.382;2023-04-22T03:18:46;11.37;;;6.20;;
52320;SDS011;38261;54.090;13.382;2023-04-22T03:20:08;11.00;;;7.30;;
52320;SDS011;38261;54.090;13.382;2023-04-22T03:21:32;13.33;;;7.10;;
52320;SDS011;38261;54.090;13.382;2023-04-22T03:22:54;12.60;;;7.10;;
52320;SDS011;38261;54.090;13.382;2023-04-22T03:24:16;12.77;;;5.90;;
52320;SDS011;38261;54.090;13.382;2023-04-22T03:25:38;14.10;;;6.67;;
52320;SDS011;38261;54.090;13.382;2023-04-22T03:27:00;13.63;;;6.33;;
52320;SDS011;38261;54.090;13.382;2023-04-22T03:28:22;11.73;;;5.90;;
52320;SDS011;38261;54.090;13.382;2023-04-22T03:29:44;9.57;;;6.00;;
52320;SDS011;38261;54.090;13.382;2023-04-22T03:31:06;10.70;;;6.70;;
52320;SDS011;38261;54.090;13.382;2023-04-22T03:32:28;9.97;;;6.20;;
52320;SDS011;38261;54.090;13.382;2023-04-22T03:33:51;11.93;;;6.13;;
52320;SDS011;38261;54.090;13.382;2023-04-22T03:35:13;13.40;;;6.40;;
52320;SDS011;38261;54.090;13.382;2023-04-22T03:36:35;9.63;;;5.97;;
52320;SDS011;38261;54.090;13.382;2023-04-22T03:37:57;11.63;;;6.33;;
52320;SDS011;38261;54.090;13.382;2023-04-22T03:39:19;13.70;;;6.70;;
52320;SDS011;38261;54.090;13.382;2023-04-22T03:40:41;8.20;;;6.17;;
52320;SDS011;38261;54.090;13.382;2023-04-22T03:42:04;9.20;;;6.20;;
52320;SDS011;38261;54.090;13.382;2023-04-22T03:43:26;8.83;;;5.77;;
52320;SDS011;38261;54.090;13.382;2023-04-22T03:44:48;21.40;;;6.83;;
52320;SDS011;38261;54.090;13.382;2023-04-22T03:46:10;10.47;;;5.60;;
52320;SDS011;38261;54.090;13.382;2023-04-22T03:47:32;12.80;;;6.83;;
52320;SDS011;38261;54.090;13.382;2023-04-22T03:48:54;8.90;;;6.07;;
52320;SDS011;38261;54.090;13.382;2023-04-22T03:50:16;10.13;;;6.43;;
52320;SDS011;38261;54.090;13.382;2023-04-22T03:51:38;10.37;;;7.00;;
52320;SDS011;38261;54.090;13.382;2023-04-22T03:53:00;10.43;;;6.53;;
52320;SDS011;38261;54.090;13.382;2023-04-22T03:54:23;15.20;;;6.23;;
52320;SDS011;38261;54.090;13.382;2023-04-22T03:55:47;11.80;;;6.37;;
52320;SDS011;38261;54.090;13.382;2023-04-22T03:57:09;11.60;;;6.53;;
52320;SDS011;38261;54.090;13.382;2023-04-22T03:58:32;8.97;;;6.30;;
52320;SDS011;38261;54.090;13.382;2023-04-22T03:59:54;11.37;;;6.20;;
52320;SDS011;38261;54.090;13.382;2023-04-22T04:01:16;10.03;;;6.17;;
52320;SDS011;38261;54.090;13.382;2023-04-22T04:02:38;10.60;;;6.37;;
52320;SDS011;38261;54.090;13.382;2023-04-22T04:04:01;9.27;;;6.50;;
52320;SDS011;38261;54.090;13.382;2023-04-22T04:05:23;9.03;;;6.03;;
52320;SDS011;38261;54.090;13.382;2023-04-22T04:06:45;10.93;;;6.17;;
52320;SDS011;38261;54.090;13.382;2023-04-22T04:08:07;8.17;;;6.07;;
52320;SDS011;38261;54.090;13.382;2023-04-22T04:09:30;16.17;;;6.53;;
52320;SDS011;38261;54.090;13.382;2023-04-22T04:10:52;9.83;;;6.87;;
52320;SDS011;38261;54.090;13.382;2023-04-22T04:12:14;9.00;;;5.93;;
52320;SDS011;38261;54.090;13.382;2023-04-22T04:13:36;7.77;;;5.53;;
52320;SDS011;38261;54.090;13.382;2023-04-22T04:14:58;8.87;;;5.80;;
52320;SDS011;38261;54.090;13.382;2023-04-22T04:16:20;10.10;;;6.63;;
52320;SDS011;38261;54.090;13.382;2023-04-22T04:17:42;10.90;;;6.07;;
52320;SDS011;38261;54.090;13.382;2023-04-22T04:19:05;8.20;;;5.10;;
52320;SDS011;38261;54.090;13.382;2023-04-22T04:20:27;10.03;;;5.40;;
52320;SDS011;38261;54.090;13.382;2023-04-22T04:21:49;9.40;;;6.10;;
52320;SDS011;38261;54.090;13.382;2023-04-22T04:23:11;8.73;;;5.63;;
52320;SDS011;38261;54.090;13.382;2023-04-22T04:24:33;8.77;;;6.30;;
52320;SDS011;38261;54.090;13.382;2023-04-22T04:25:57;7.07;;;5.73;;
52320;SDS011;38261;54.090;13.382;2023-04-22T04:27:21;10.90;;;6.27;;
52320;SDS011;38261;54.090;13.382;2023-04-22T04:28:44;9.60;;;5.60;;
52320;SDS011;38261;54.090;13.382;2023-04-22T04:30:07;9.20;;;5.17;;
52320;SDS011;38261;54.090;13.382;2023-04-22T04:31:30;10.43;;;6.10;;
52320;SDS011;38261;54.090;13.382;2023-04-22T04:32:52;9.80;;;5.30;;
52320;SDS011;38261;54.090;13.382;2023-04-22T04:34:15;7.33;;;5.70;;
52320;SDS011;38261;54.090;13.382;2023-04-22T04:35:37;13.10;;;6.40;;
52320;SDS011;38261;54.090;13.382;2023-04-22T04:36:59;6.33;;;5.20;;
52320;SDS011;38261;54.090;13.382;2023-04-22T04:38:21;12.53;;;6.70;;
52320;SDS011;38261;54.090;13.382;2023-04-22T04:39:45;9.73;;;6.10;;
52320;SDS011;38261;54.090;13.382;2023-04-22T04:41:07;8.07;;;5.13;;
52320;SDS011;38261;54.090;13.382;2023-04-22T04:42:30;8.53;;;5.70;;
52320;SDS011;38261;54.090;13.382;2023-04-22T04:43:53;8.67;;;5.40;;
52320;SDS011;38261;54.090;13.382;2023-04-22T04:45:16;6.23;;;5.23;;
52320;SDS011;38261;54.090;13.382;2023-04-22T04:46:39;9.97;;;5.97;;
52320;SDS011;38261;54.090;13.382;2023-04-22T04:48:02;11.43;;;6.50;;
52320;SDS011;38261;54.090;13.382;2023-04-22T04:49:24;10.07;;;5.50;;
52320;SDS011;38261;54.090;13.382;2023-04-22T04:50:47;10.43;;;6.07;;
52320;SDS011;38261;54.090;13.382;2023-04-22T04:52:10;9.00;;;4.90;;
52320;SDS011;38261;54.090;13.382;2023-04-22T04:53:32;6.73;;;5.37;;
52320;SDS011;38261;54.090;13.382;2023-04-22T04:54:55;9.53;;;5.70;;
52320;SDS011;38261;54.090;13.382;2023-04-22T04:56:17;9.70;;;5.43;;
52320;SDS011;38261;54.090;13.382;2023-04-22T04:57:39;10.80;;;6.23;;
52320;SDS011;38261;54.090;13.382;2023-04-22T04:59:01;9.30;;;5.70;;
52320;SDS011;38261;54.090;13.382;2023-04-22T05:00:23;10.90;;;6.10;;
52320;SDS011;38261;54.090;13.382;2023-04-22T05:01:45;7.67;;;5.67;;
52320;SDS011;38261;54.090;13.382;2023-04-22T05:03:07;8.63;;;5.97;;
52320;SDS011;38261;54.090;13.382;2023-04-22T05:04:32;9.67;;;5.60;;
52320;SDS011;38261;54.090;13.382;2023-04-22T05:05:55;14.50;;;5.40;;
52320;SDS011;38261;54.090;13.382;2023-04-22T05:07:17;11.37;;;7.20;;
52320;SDS011;38261;54.090;13.382;2023-04-22T05:08:39;10.90;;;6.37;;
52320;SDS011;38261;54.090;13.382;2023-04-22T05:10:01;11.20;;;6.50;;
52320;SDS011;38261;54.090;13.382;2023-04-22T05:11:24;9.10;;;5.70;;
52320;SDS011;38261;54.090;13.382;2023-04-22T05:12:46;14.20;;;7.23;;
52320;SDS011;38261;54.090;13.382;2023-04-22T05:14:08;17.03;;;11.23;;
52320;SDS011;38261;54.090;13.382;2023-04-22T05:15:30;15.30;;;10.97;;
52320;SDS011;38261;54.090;13.382;2023-04-22T05:16:52;8.97;;;7.03;;
52320;SDS011;38261;54.090;13.382;2023-04-22T05:18:14;9.73;;;6.93;;
52320;SDS011;38261;54.090;13.382;2023-04-22T05:19:36;10.03;;;6.70;;
52320;SDS011;38261;54.090;13.382;2023-04-22T05:20:59;9.67;;;6.80;;
52320;SDS011;38261;54.090;13.382;2023-04-22T05:22:24;20.53;;;15.67;;
52320;SDS011;38261;54.090;13.382;2023-04-22T05:23:46;17.03;;;11.90;;
52320;SDS011;38261;54.090;13.382;2023-04-22T05:25:09;16.63;;;8.80;;
52320;SDS011;38261;54.090;13.382;2023-04-22T05:26:31;8.00;;;6.50;;
52320;SDS011;38261;54.090;13.382;2023-04-22T05:27:53;10.20;;;6.93;;
52320;SDS011;38261;54.090;13.382;2023-04-22T05:29:15;10.67;;;6.03;;
52320;SDS011;38261;54.090;13.382;2023-04-22T05:30:37;11.17;;;5.83;;
52320;SDS011;38261;54.090;13.382;2023-04-22T05:31:59;10.57;;;6.03;;
52320;SDS011;38261;54.090;13.382;2023-04-22T05:33:21;12.40;;;6.27;;
52320;SDS011;38261;54.090;13.382;2023-04-22T05:34:43;8.07;;;5.43;;
52320;SDS011;38261;54.090;13.382;2023-04-22T05:36:06;8.03;;;5.97;;
52320;SDS011;38261;54.090;13.382;2023-04-22T05:37:28;8.63;;;5.70;;
52320;SDS011;38261;54.090;13.382;2023-04-22T05:38:50;9.60;;;5.73;;
52320;SDS011;38261;54.090;13.382;2023-04-22T05:40:12;11.70;;;6.20;;
52320;SDS011;38261;54.090;13.382;2023-04-22T05:41:34;15.90;;;6.03;;
52320;SDS011;38261;54.090;13.382;2023-04-22T05:42:56;8.17;;;5.47;;
52320;SDS011;38261;54.090;13.382;2023-04-22T05:44:18;10.70;;;5.60;;
52320;SDS011;38261;54.090;13.382;2023-04-22T05:45:40;9.60;;;5.27;;
52320;SDS011;38261;54.090;13.382;2023-04-22T05:47:02;6.87;;;5.77;;
52320;SDS011;38261;54.090;13.382;2023-04-22T05:48:24;10.07;;;5.50;;
52320;SDS011;38261;54.090;13.382;2023-04-22T05:49:46;7.73;;;5.70;;
52320;SDS011;38261;54.090;13.382;2023-04-22T05:51:09;9.50;;;6.70;;
52320;SDS011;38261;54.090;13.382;2023-04-22T05:52:31;9.80;;;5.70;;
52320;SDS011;38261;54.090;13.382;2023-04-22T05:53:53;14.90;;;5.83;;
52320;SDS011;38261;54.090;13.382;2023-04-22T05:55:15;10.37;;;5.67;;
52320;SDS011;38261;54.090;13.382;2023-04-22T05:56:37;8.73;;;4.83;;
52320;SDS011;38261;54.090;13.382;2023-04-22T05:57:59;7.20;;;5.33;;
52320;SDS011;38261;54.090;13.382;2023-04-22T05:59:21;7.30;;;5.70;;
52320;SDS011;38261;54.090;13.382;2023-04-22T06:00:43;10.13;;;5.40;;
52320;SDS011;38261;54.090;13.382;2023-04-22T06:02:06;8.23;;;5.80;;
52320;SDS011;38261;54.090;13.382;2023-04-22T06:03:28;8.40;;;4.93;;
52320;SDS011;38261;54.090;13.382;2023-04-22T06:04:51;11.87;;;5.67;;
52320;SDS011;38261;54.090;13.382;2023-04-22T06:06:13;8.40;;;5.90;;
52320;SDS011;38261;54.090;13.382;2023-04-22T06:07:36;8.80;;;5.20;;
52320;SDS011;38261;54.090;13.382;2023-04-22T06:08:58;7.50;;;5.60;;
52320;SDS011;38261;54.090;13.382;2023-04-22T06:10:20;13.70;;;6.03;;
52320;SDS011;38261;54.090;13.382;2023-04-22T06:11:42;12.47;;;5.80;;
52320;SDS011;38261;54.090;13.382;2023-04-22T06:13:04;10.73;;;6.10;;
52320;SDS011;38261;54.090;13.382;2023-04-22T06:14:26;9.27;;;5.50;;
52320;SDS011;38261;54.090;13.382;2023-04-22T06:15:48;12.90;;;6.70;;
52320;SDS011;38261;54.090;13.382;2023-04-22T06:17:11;9.70;;;5.63;;
52320;SDS011;38261;54.090;13.382;2023-04-22T06:18:33;14.40;;;6.23;;
52320;SDS011;38261;54.090;13.382;2023-04-22T06:19:58;12.43;;;6.33;;
52320;SDS011;38261;54.090;13.382;2023-04-22T06:21:21;13.37;;;6.50;;
52320;SDS011;38261;54.090;13.382;2023-04-22T06:22:43;8.50;;;6.00;;
52320;SDS011;38261;54.090;13.382;2023-04-22T06:24:05;8.73;;;5.60;;
52320;SDS011;38261;54.090;13.382;2023-04-22T06:25:27;11.43;;;5.43;;
52320;SDS011;38261;54.090;13.382;2023-04-22T06:26:49;11.23;;;5.97;;
52320;SDS011;38261;54.090;13.382;2023-04-22T06:28:11;13.10;;;6.60;;
52320;SDS011;38261;54.090;13.382;2023-04-22T06:29:33;8.07;;;5.60;;
52320;SDS011;38261;54.090;13.382;2023-04-22T06:30:56;14.50;;;6.40;;
52320;SDS011;38261;54.090;13.382;2023-04-22T06:32:18;9.00;;;5.57;;
52320;SDS011;38261;54.090;13.382;2023-04-22T06:33:40;12.80;;;6.17;;
52320;SDS011;38261;54.090;13.382;2023-04-22T06:35:02;11.07;;;5.90;;
52320;SDS011;38261;54.090;13.382;2023-04-22T06:36:25;9.20;;;6.40;;
52320;SDS011;38261;54.090;13.382;2023-04-22T06:37:51;9.67;;;6.30;;
52320;SDS011;38261;54.090;13.382;2023-04-22T06:39:13;9.90;;;6.10;;
52320;SDS011;38261;54.090;13.382;2023-04-22T06:40:35;14.70;;;5.80;;
52320;SDS011;38261;54.090;13.382;2023-04-22T06:41:57;12.00;;;5.30;;
52320;SDS011;38261;54.090;13.382;2023-04-22T06:43:19;8.90;;;6.20;;
52320;SDS011;38261;54.090;13.382;2023-04-22T06:44:41;8.63;;;6.27;;
52320;SDS011;38261;54.090;13.382;2023-04-22T06:46:03;8.70;;;6.43;;
52320;SDS011;38261;54.090;13.382;2023-04-22T06:47:26;11.50;;;6.50;;
52320;SDS011;38261;54.090;13.382;2023-04-22T06:48:48;8.80;;;6.20;;
52320;SDS011;38261;54.090;13.382;2023-04-22T06:50:10;9.60;;;5.70;;
52320;SDS011;38261;54.090;13.382;2023-04-22T06:51:32;9.90;;;5.67;;
52320;SDS011;38261;54.090;13.382;2023-04-22T06:52:54;9.57;;;5.67;;
52320;SDS011;38261;54.090;13.382;2023-04-22T06:54:16;9.33;;;5.70;;
52320;SDS011;38261;54.090;13.382;2023-04-22T06:55:38;9.07;;;5.70;;
52320;SDS011;38261;54.090;13.382;2023-04-22T06:57:00;11.47;;;6.23;;
52320;SDS011;38261;54.090;13.382;2023-04-22T06:58:22;9.37;;;6.00;;
52320;SDS011;38261;54.090;13.382;2023-04-22T06:59:44;8.60;;;5.60;;
52320;SDS011;38261;54.090;13.382;2023-04-22T07:01:07;8.90;;;6.07;;
52320;SDS011;38261;54.090;13.382;2023-04-22T07:02:29;8.43;;;6.17;;
52320;SDS011;38261;54.090;13.382;2023-04-22T07:03:52;12.57;;;6.13;;
52320;SDS011;38261;54.090;13.382;2023-04-22T07:05:14;10.90;;;6.07;;
52320;SDS011;38261;54.090;13.382;2023-04-22T07:06:36;12.07;;;5.87;;
52320;SDS011;38261;54.090;13.382;2023-04-22T07:07:58;12.40;;;6.80;;
52320;SDS011;38261;54.090;13.382;2023-04-22T07:09:20;12.40;;;7.23;;
52320;SDS011;38261;54.090;13.382;2023-04-22T07:10:43;12.80;;;6.30;;
52320;SDS011;38261;54.090;13.382;2023-04-22T07:12:05;9.47;;;5.50;;
52320;SDS011;38261;54.090;13.382;2023-04-22T07:13:27;14.20;;;6.10;;
52320;SDS011;38261;54.090;13.382;2023-04-22T07:14:49;11.20;;;6.30;;
52320;SDS011;38261;54.090;13.382;2023-04-22T07:16:11;10.67;;;5.93;;
52320;SDS011;38261;54.090;13.382;2023-04-22T07:17:34;14.27;;;6.10;;
52320;SDS011;38261;54.090;13.382;2023-04-22T07:18:56;9.50;;;6.23;;
52320;SDS011;38261;54.090;13.382;2023-04-22T07:20:19;10.73;;;5.87;;
52320;SDS011;38261;54.090;13.382;2023-04-22T07:21:41;7.47;;;5.77;;
52320;SDS011;38261;54.090;13.382;2023-04-22T07:23:03;15.90;;;6.47;;
52320;SDS011;38261;54.090;13.382;2023-04-22T07:24:26;9.50;;;5.90;;
52320;SDS011;38261;54.090;13.382;2023-04-22T07:25:48;8.90;;;6.40;;
52320;SDS011;38261;54.090;13.382;2023-04-22T07:27:10;10.67;;;6.53;;
52320;SDS011;38261;54.090;13.382;2023-04-22T07:28:32;9.50;;;6.70;;
52320;SDS011;38261;54.090;13.382;2023-04-22T07:29:54;11.10;;;6.07;;
52320;SDS011;38261;54.090;13.382;2023-04-22T07:31:16;10.37;;;6.30;;
52320;SDS011;38261;54.090;13.382;2023-04-22T07:32:38;8.90;;;5.90;;
52320;SDS011;38261;54.090;13.382;2023-04-22T07:34:00;14.10;;;6.00;;
52320;SDS011;38261;54.090;13.382;2023-04-22T07:35:23;9.70;;;6.00;;
52320;SDS011;38261;54.090;13.382;2023-04-22T07:36:45;10.07;;;6.30;;
52320;SDS011;38261;54.090;13.382;2023-04-22T07:38:07;8.93;;;5.77;;
52320;SDS011;38261;54.090;13.382;2023-04-22T07:39:31;9.27;;;5.67;;
52320;SDS011;38261;54.090;13.382;2023-04-22T07:40:53;10.90;;;5.77;;
52320;SDS011;38261;54.090;13.382;2023-04-22T07:42:15;8.23;;;5.50;;
52320;SDS011;38261;54.090;13.382;2023-04-22T07:43:37;9.80;;;6.10;;
52320;SDS011;38261;54.090;13.382;2023-04-22T07:44:59;8.50;;;6.00;;
52320;SDS011;38261;54.090;13.382;2023-04-22T07:46:21;13.40;;;5.87;;
52320;SDS011;38261;54.090;13.382;2023-04-22T07:47:44;10.80;;;6.20;;
52320;SDS011;38261;54.090;13.382;2023-04-22T07:49:06;8.43;;;5.97;;
52320;SDS011;38261;54.090;13.382;2023-04-22T07:50:28;11.30;;;6.37;;
52320;SDS011;38261;54.090;13.382;2023-04-22T07:51:50;7.90;;;5.30;;
52320;SDS011;38261;54.090;13.382;2023-04-22T07:53:12;12.20;;;5.33;;
52320;SDS011;38261;54.090;13.382;2023-04-22T07:54:36;9.73;;;6.70;;
52320;SDS011;38261;54.090;13.382;2023-04-22T07:55:59;8.73;;;6.00;;
52320;SDS011;38261;54.090;13.382;2023-04-22T07:57:22;29.50;;;6.33;;
52320;SDS011;38261;54.090;13.382;2023-04-22T07:58:45;12.63;;;6.10;;
52320;SDS011;38261;54.090;13.382;2023-04-22T08:00:08;10.13;;;6.07;;
52320;SDS011;38261;54.090;13.382;2023-04-22T08:01:31;8.93;;;5.80;;
52320;SDS011;38261;54.090;13.382;2023-04-22T08:02:53;13.10;;;5.87;;
52320;SDS011;38261;54.090;13.382;2023-04-22T08:04:16;10.27;;;6.73;;
52320;SDS011;38261;54.090;13.382;2023-04-22T08:05:38;10.47;;;5.97;;